createdAt,value
2018-04-24T00:00:12.837Z,11.44
2018-04-24T00:01:12.459Z,11.47
2018-04-24T00:02:12.433Z,11.51
2018-04-24T00:03:12.659Z,11.45
2018-04-24T00:04:12.635Z,11.4
2018-04-24T00:05:12.615Z,11.5
2018-04-24T00:06:12.588Z,11.47
2018-04-24T00:07:12.565Z,11.41
2018-04-24T00:08:12.539Z,11.44
2018-04-24T00:09:12.518Z,11.5
2018-04-24T00:10:12.243Z,11.43
2018-04-24T00:11:12.222Z,11.45
2018-04-24T00:12:12.448Z,11.5
2018-04-24T00:13:12.174Z,11.44
2018-04-24T00:14:12.157Z,11.45
2018-04-24T00:15:12.473Z,11.44
2018-04-24T00:16:12.350Z,11.44
2018-04-24T00:17:12.333Z,11.41
2018-04-24T00:18:12.367Z,11.36
2018-04-24T00:19:12.028Z,11.41
2018-04-24T00:20:12.256Z,11.33
2018-04-24T00:21:12.231Z,11.36
2018-04-24T00:22:12.204Z,11.3
2018-04-24T00:23:11.936Z,11.4
2018-04-24T00:24:12.160Z,11.37
2018-04-24T00:25:12.131Z,11.36
2018-04-24T00:26:12.305Z,11.35
2018-04-24T00:27:12.099Z,11.3
2018-04-24T00:28:12.069Z,11.37
2018-04-24T00:29:11.793Z,11.35
2018-04-24T00:30:12.026Z,11.36
2018-04-24T00:31:11.999Z,11.43
2018-04-24T00:32:11.971Z,11.3
2018-04-24T00:33:11.705Z,11.4
2018-04-24T00:34:11.928Z,11.33
2018-04-24T00:35:11.644Z,11.43
2018-04-24T00:36:11.872Z,11.48
2018-04-24T00:37:11.852Z,11.44
2018-04-24T00:38:11.830Z,11.41
2018-04-24T00:39:11.801Z,11.3
2018-04-24T00:40:11.783Z,11.3
2018-04-24T00:41:11.753Z,11.36
2018-04-24T00:42:11.742Z,11.27
2018-04-24T00:43:11.709Z,11.33
2018-04-24T00:44:11.678Z,11.37
2018-04-24T00:45:11.653Z,11.33
2018-04-24T00:46:11.636Z,11.36
2018-04-24T00:47:11.363Z,11.37
2018-04-24T00:48:11.594Z,11.29
2018-04-24T00:49:11.561Z,11.4
2018-04-24T00:50:11.536Z,11.35
2018-04-24T00:51:11.521Z,11.35
2018-04-24T00:52:11.499Z,11.29
2018-04-24T00:53:11.465Z,11.32
2018-04-24T00:54:11.439Z,11.35
2018-04-24T00:55:11.413Z,11.27
2018-04-24T00:56:11.393Z,11.26
2018-04-24T00:57:11.372Z,11.26
2018-04-24T00:58:11.102Z,11.25
2018-04-24T00:59:11.328Z,11.12
2018-04-24T01:00:11.298Z,11.15
2018-04-24T01:01:11.026Z,11.17
2018-04-24T01:02:11.002Z,11.19
2018-04-24T01:03:11.232Z,11.22
2018-04-24T01:04:11.205Z,11.14
2018-04-24T01:05:11.181Z,11.18
2018-04-24T01:06:10.904Z,11.15
2018-04-24T01:07:10.879Z,11.15
2018-04-24T01:08:11.109Z,11.14
2018-04-24T01:09:10.848Z,11.11
2018-04-24T01:10:11.066Z,11.14
2018-04-24T01:11:11.030Z,11.14
2018-04-24T01:12:10.757Z,11.14
2018-04-24T01:13:10.987Z,11.11
2018-04-24T01:14:10.906Z,11.14
2018-04-24T01:15:10.961Z,11.12
2018-04-24T01:16:10.663Z,11.11
2018-04-24T01:17:10.639Z,11.12
2018-04-24T01:18:10.868Z,11.1
2018-04-24T01:19:10.588Z,11.11
2018-04-24T01:20:10.569Z,11.08
2018-04-24T01:21:10.798Z,11.1
2018-04-24T01:22:10.770Z,11.07
2018-04-24T01:23:10.248Z,11.02
2018-04-24T01:24:10.470Z,11.02
2018-04-24T01:25:10.446Z,10.9
2018-04-24T01:26:10.672Z,10.92
2018-04-24T01:27:10.651Z,10.84
2018-04-24T01:28:10.384Z,10.82
2018-04-24T01:29:10.599Z,10.75
2018-04-24T01:30:10.581Z,10.87
2018-04-24T01:31:10.553Z,10.76
2018-04-24T01:32:10.638Z,10.79
2018-04-24T01:33:10.506Z,10.71
2018-04-24T01:34:10.573Z,10.74
2018-04-24T01:35:10.456Z,10.74
2018-04-24T01:36:10.190Z,10.69
2018-04-24T01:37:10.473Z,10.68
2018-04-24T01:38:10.400Z,10.79
2018-04-24T01:39:10.112Z,10.68
2018-04-24T01:40:10.335Z,10.75
2018-04-24T01:41:10.063Z,10.78
2018-04-24T01:42:09.790Z,10.69
2018-04-24T01:43:10.262Z,10.75
2018-04-24T01:44:10.243Z,10.72
2018-04-24T01:45:10.223Z,10.78
2018-04-24T01:46:09.691Z,10.78
2018-04-24T01:47:10.168Z,10.79
2018-04-24T01:48:10.213Z,10.72
2018-04-24T01:49:10.114Z,10.78
2018-04-24T01:50:09.842Z,10.78
2018-04-24T01:51:10.067Z,10.75
2018-04-24T01:52:09.810Z,10.78
2018-04-24T01:53:09.806Z,10.74
2018-04-24T01:54:10.004Z,10.74
2018-04-24T01:55:09.969Z,10.76
2018-04-24T01:56:09.700Z,10.72
2018-04-24T01:57:09.674Z,10.78
2018-04-24T01:58:09.903Z,10.81
2018-04-24T01:59:09.871Z,10.79
2018-04-24T02:00:09.615Z,10.84
2018-04-24T02:01:09.326Z,10.76
2018-04-24T02:02:09.792Z,10.76
2018-04-24T02:03:09.774Z,10.82
2018-04-24T02:04:09.755Z,10.78
2018-04-24T02:05:09.731Z,10.84
2018-04-24T02:06:09.464Z,10.84
2018-04-24T02:07:09.675Z,10.79
2018-04-24T02:08:09.662Z,10.79
2018-04-24T02:09:09.385Z,10.84
2018-04-24T02:10:09.107Z,10.81
2018-04-24T02:11:09.579Z,10.81
2018-04-24T02:12:09.757Z,10.78
2018-04-24T02:13:09.536Z,10.78
2018-04-24T02:14:09.514Z,10.81
2018-04-24T02:15:09.235Z,10.76
2018-04-24T02:16:09.483Z,10.82
2018-04-24T02:17:09.434Z,10.78
2018-04-24T02:18:09.427Z,10.86
2018-04-24T02:19:09.383Z,10.78
2018-04-24T02:20:09.115Z,10.78
2018-04-24T02:21:09.339Z,10.79
2018-04-24T02:22:09.313Z,10.78
2018-04-24T02:23:09.041Z,10.81
2018-04-24T02:24:09.266Z,10.82
2018-04-24T02:25:09.345Z,10.79
2018-04-24T02:26:09.218Z,10.78
2018-04-24T02:27:09.190Z,10.75
2018-04-24T02:28:09.174Z,10.78
2018-04-24T02:29:09.147Z,10.78
2018-04-24T02:30:08.870Z,10.72
2018-04-24T02:31:09.108Z,10.71
2018-04-24T02:32:09.075Z,10.72
2018-04-24T02:33:09.048Z,10.63
2018-04-24T02:34:09.018Z,10.75
2018-04-24T02:35:09.010Z,10.63
2018-04-24T02:36:08.981Z,10.61
2018-04-24T02:37:08.953Z,10.67
2018-04-24T02:38:08.930Z,10.61
2018-04-24T02:39:08.652Z,10.6
2018-04-24T02:40:08.878Z,10.56
2018-04-24T02:41:08.857Z,10.54
2018-04-24T02:42:08.834Z,10.59
2018-04-24T02:43:08.558Z,10.57
2018-04-24T02:44:08.534Z,10.6
2018-04-24T02:45:08.515Z,10.56
2018-04-24T02:46:08.732Z,10.48
2018-04-24T02:47:08.709Z,10.48
2018-04-24T02:48:08.713Z,10.51
2018-04-24T02:49:08.661Z,10.37
2018-04-24T02:50:08.632Z,10.41
2018-04-24T02:51:08.616Z,10.34
2018-04-24T02:52:08.581Z,10.46
2018-04-24T02:53:08.313Z,10.41
2018-04-24T02:54:08.533Z,10.38
2018-04-24T02:55:08.520Z,10.42
2018-04-24T02:56:08.237Z,10.34
2018-04-24T02:57:08.458Z,10.22
2018-04-24T02:58:08.448Z,10.37
2018-04-24T02:59:08.415Z,10.34
2018-04-24T03:00:08.393Z,10.2
2018-04-24T03:01:08.360Z,10.31
2018-04-24T03:02:08.088Z,10.2
2018-04-24T03:03:08.066Z,10.25
2018-04-24T03:04:08.038Z,10.17
2018-04-24T03:05:08.013Z,10.23
2018-04-24T03:06:08.008Z,10.17
2018-04-24T03:07:07.962Z,10.07
2018-04-24T03:08:08.188Z,10.12
2018-04-24T03:09:08.173Z,10.05
2018-04-24T03:10:08.152Z,10.15
2018-04-24T03:11:08.113Z,10.12
2018-04-24T03:12:07.843Z,10.04
2018-04-24T03:13:07.818Z,10.07
2018-04-24T03:14:08.036Z,10.02
2018-04-24T03:15:08.014Z,10.02
2018-04-24T03:16:07.744Z,10.01
2018-04-24T03:17:07.961Z,9.98
2018-04-24T03:18:07.934Z,9.98
2018-04-24T03:19:07.907Z,9.97
2018-04-24T03:20:07.890Z,9.95
2018-04-24T03:21:07.619Z,9.95
2018-04-24T03:22:07.596Z,9.89
2018-04-24T03:23:07.813Z,10.04
2018-04-24T03:24:07.792Z,9.94
2018-04-24T03:25:07.268Z,9.89
2018-04-24T03:26:07.489Z,9.87
2018-04-24T03:27:07.486Z,9.89
2018-04-24T03:28:07.692Z,9.94
2018-04-24T03:29:07.661Z,9.98
2018-04-24T03:30:07.652Z,9.89
2018-04-24T03:31:07.622Z,9.83
2018-04-24T03:32:07.590Z,9.74
2018-04-24T03:33:07.325Z,9.79
2018-04-24T03:34:07.543Z,9.8
2018-04-24T03:35:07.519Z,9.8
2018-04-24T03:36:07.247Z,9.79
2018-04-24T03:37:06.970Z,9.76
2018-04-24T03:38:07.440Z,9.77
2018-04-24T03:39:07.418Z,9.76
2018-04-24T03:40:07.138Z,9.73
2018-04-24T03:41:07.120Z,9.73
2018-04-24T03:42:07.345Z,9.66
2018-04-24T03:43:07.062Z,9.76
2018-04-24T03:44:07.295Z,9.69
2018-04-24T03:45:07.018Z,9.77
2018-04-24T03:46:06.988Z,9.73
2018-04-24T03:47:07.215Z,9.72
2018-04-24T03:48:06.940Z,9.65
2018-04-24T03:49:06.669Z,9.74
2018-04-24T03:50:06.891Z,9.76
2018-04-24T03:51:06.613Z,9.73
2018-04-24T03:52:06.592Z,9.74
2018-04-24T03:53:07.067Z,9.65
2018-04-24T03:54:07.038Z,9.72
2018-04-24T03:55:06.513Z,9.69
2018-04-24T03:56:06.488Z,9.76
2018-04-24T03:57:06.963Z,9.62
2018-04-24T03:58:06.693Z,9.69
2018-04-24T03:59:06.665Z,9.69
2018-04-24T04:00:06.640Z,9.72
2018-04-24T04:01:06.865Z,9.68
2018-04-24T04:02:06.588Z,9.66
2018-04-24T04:03:06.570Z,9.68
2018-04-24T04:04:06.536Z,9.68
2018-04-24T04:05:06.767Z,9.62
2018-04-24T04:06:06.491Z,9.66
2018-04-24T04:07:06.713Z,9.68
2018-04-24T04:08:06.436Z,9.66
2018-04-24T04:09:06.416Z,9.65
2018-04-24T04:10:06.638Z,9.65
2018-04-24T04:11:06.607Z,9.65
2018-04-24T04:12:06.587Z,9.65
2018-04-24T04:13:06.316Z,9.64
2018-04-24T04:14:06.041Z,9.62
2018-04-24T04:15:06.267Z,9.66
2018-04-24T04:16:06.417Z,9.68
2018-04-24T04:17:07.575Z,9.65
2018-04-24T04:18:06.186Z,9.66
2018-04-24T04:19:06.159Z,9.68
2018-04-24T04:20:06.134Z,9.62
2018-04-24T04:21:06.361Z,9.68
2018-04-24T04:22:06.085Z,9.69
2018-04-24T04:23:06.314Z,9.73
2018-04-24T04:24:06.035Z,9.68
2018-04-24T04:25:06.006Z,9.73
2018-04-24T04:26:05.984Z,9.66
2018-04-24T04:27:06.206Z,9.73
2018-04-24T04:28:05.940Z,9.66
2018-04-24T04:29:05.955Z,9.68
2018-04-24T04:30:06.133Z,9.72
2018-04-24T04:31:05.857Z,9.72
2018-04-24T04:32:06.093Z,9.72
2018-04-24T04:33:05.963Z,9.73
2018-04-24T04:34:06.037Z,9.8
2018-04-24T04:35:05.762Z,9.77
2018-04-24T04:36:05.980Z,9.77
2018-04-24T04:37:05.711Z,9.8
2018-04-24T04:38:05.684Z,9.89
2018-04-24T04:39:05.905Z,9.86
2018-04-24T04:40:05.631Z,9.84
2018-04-24T04:41:05.609Z,9.89
2018-04-24T04:42:05.581Z,9.98
2018-04-24T04:43:05.808Z,9.91
2018-04-24T04:44:05.528Z,9.86
2018-04-24T04:45:05.505Z,9.89
2018-04-24T04:46:05.481Z,9.94
2018-04-24T04:47:05.457Z,10.04
2018-04-24T04:48:05.432Z,9.91
2018-04-24T04:49:05.409Z,10.01
2018-04-24T04:50:05.382Z,10.01
2018-04-24T04:51:05.611Z,9.97
2018-04-24T04:52:05.332Z,10.13
2018-04-24T04:53:05.317Z,10.1
2018-04-24T04:54:05.642Z,10.05
2018-04-24T04:55:05.009Z,10.16
2018-04-24T04:56:05.299Z,10.13
2018-04-24T04:57:05.209Z,10.12
2018-04-24T04:58:05.436Z,10.1
2018-04-24T04:59:05.175Z,10.12
2018-04-24T05:00:05.149Z,10.1
2018-04-24T05:01:05.111Z,10.16
2018-04-24T05:02:05.332Z,10.2
2018-04-24T05:03:05.058Z,10.22
2018-04-24T05:04:05.286Z,10.19
2018-04-24T05:05:05.277Z,10.37
2018-04-24T05:06:05.343Z,10.28
2018-04-24T05:07:04.964Z,10.33
2018-04-24T05:08:05.192Z,10.33
2018-04-24T05:09:05.168Z,10.33
2018-04-24T05:10:05.146Z,10.37
2018-04-24T05:11:04.864Z,10.37
2018-04-24T05:12:05.211Z,10.42
2018-04-24T05:13:04.819Z,10.44
2018-04-24T05:14:05.041Z,10.41
2018-04-24T05:15:05.017Z,10.48
2018-04-24T05:16:04.744Z,10.54
2018-04-24T05:17:04.719Z,10.57
2018-04-24T05:18:04.446Z,10.59
2018-04-24T05:19:04.931Z,10.57
2018-04-24T05:20:05.091Z,10.63
2018-04-24T05:21:04.872Z,10.6
2018-04-24T05:22:04.596Z,10.54
2018-04-24T05:23:04.576Z,10.56
2018-04-24T05:24:04.805Z,10.57
2018-04-24T05:25:04.525Z,10.56
2018-04-24T05:26:04.505Z,10.59
2018-04-24T05:27:04.483Z,10.61
2018-04-24T05:28:04.703Z,10.56
2018-04-24T05:29:04.181Z,10.59
2018-04-24T05:30:04.407Z,10.67
2018-04-24T05:31:04.190Z,10.63
2018-04-24T05:32:04.111Z,10.56
2018-04-24T05:33:04.670Z,10.69
2018-04-24T05:34:04.316Z,10.68
2018-04-24T05:35:04.540Z,10.64
2018-04-24T05:36:04.513Z,10.59
2018-04-24T05:37:04.490Z,10.68
2018-04-24T05:38:04.464Z,10.68
2018-04-24T05:39:04.191Z,10.69
2018-04-24T05:40:04.413Z,10.78
2018-04-24T05:41:04.396Z,10.84
2018-04-24T05:42:04.131Z,10.86
2018-04-24T05:43:04.346Z,10.79
2018-04-24T05:44:04.321Z,10.81
2018-04-24T05:45:04.307Z,10.84
2018-04-24T05:46:04.022Z,10.84
2018-04-24T05:47:04.000Z,10.87
2018-04-24T05:48:03.728Z,10.86
2018-04-24T05:49:04.202Z,10.94
2018-04-24T05:50:03.945Z,10.92
2018-04-24T05:51:03.913Z,10.93
2018-04-24T05:52:03.880Z,10.9
2018-04-24T05:53:04.279Z,10.96
2018-04-24T05:54:03.871Z,11.02
2018-04-24T05:55:04.057Z,11.05
2018-04-24T05:56:04.039Z,11.08
2018-04-24T05:57:04.015Z,11.18
2018-04-24T05:58:03.992Z,11.25
2018-04-24T05:59:03.975Z,11.23
2018-04-24T06:00:03.948Z,11.36
2018-04-24T06:01:03.679Z,11.41
2018-04-24T06:02:03.649Z,11.3
2018-04-24T06:03:03.674Z,11.43
2018-04-24T06:04:03.855Z,11.47
2018-04-24T06:05:03.842Z,11.59
2018-04-24T06:06:03.810Z,11.48
2018-04-24T06:07:03.805Z,11.57
2018-04-24T06:08:03.777Z,11.62
2018-04-24T06:09:03.747Z,11.65
2018-04-24T06:10:03.729Z,11.62
2018-04-24T06:11:03.450Z,11.6
2018-04-24T06:12:03.679Z,11.55
2018-04-24T06:13:03.404Z,11.6
2018-04-24T06:14:03.637Z,11.65
2018-04-24T06:15:03.751Z,11.68
2018-04-24T06:16:03.597Z,11.77
2018-04-24T06:17:03.562Z,11.73
2018-04-24T06:18:03.551Z,11.77
2018-04-24T06:19:03.277Z,11.77
2018-04-24T06:20:03.498Z,11.84
2018-04-24T06:21:03.276Z,11.84
2018-04-24T06:22:03.447Z,11.83
2018-04-24T06:23:03.180Z,11.75
2018-04-24T06:24:03.409Z,11.81
2018-04-24T06:25:03.387Z,11.75
2018-04-24T06:26:03.121Z,11.75
2018-04-24T06:27:03.351Z,11.68
2018-04-24T06:28:03.072Z,11.68
2018-04-24T06:29:02.800Z,11.7
2018-04-24T06:30:03.026Z,11.7
2018-04-24T06:31:03.003Z,11.8
2018-04-24T06:32:03.059Z,11.77
2018-04-24T06:33:03.210Z,11.69
2018-04-24T06:34:02.942Z,11.77
2018-04-24T06:35:03.525Z,11.72
2018-04-24T06:36:03.762Z,11.57
2018-04-24T06:37:03.123Z,11.55
2018-04-24T06:38:02.601Z,11.54
2018-04-24T06:39:03.509Z,11.52
2018-04-24T06:40:03.360Z,11.57
2018-04-24T06:41:03.035Z,11.55
2018-04-24T06:42:02.775Z,11.57
2018-04-24T06:43:02.993Z,11.73
2018-04-24T06:44:02.714Z,11.7
2018-04-24T06:45:03.994Z,11.69
2018-04-24T06:46:02.929Z,11.73
2018-04-24T06:47:02.898Z,11.73
2018-04-24T06:48:02.880Z,11.73
2018-04-24T06:49:02.854Z,11.8
2018-04-24T06:50:02.831Z,11.7
2018-04-24T06:51:02.808Z,11.77
2018-04-24T06:52:02.789Z,11.75
2018-04-24T06:53:02.763Z,11.84
2018-04-24T06:54:02.741Z,11.84
2018-04-24T06:55:02.941Z,11.84
2018-04-24T06:56:02.708Z,11.83
2018-04-24T06:57:02.683Z,11.83
2018-04-24T06:58:02.684Z,11.86
2018-04-24T06:59:02.644Z,11.88
2018-04-24T07:00:02.364Z,11.81
2018-04-24T07:01:02.590Z,11.95
2018-04-24T07:02:02.568Z,11.95
2018-04-24T07:03:02.554Z,11.95
2018-04-24T07:04:02.522Z,11.88
2018-04-24T07:05:02.502Z,12.04
2018-04-24T07:06:02.478Z,11.91
2018-04-24T07:07:02.461Z,12.07
2018-04-24T07:08:02.437Z,12.09
2018-04-24T07:09:02.167Z,12.1
2018-04-24T07:10:02.403Z,12.21
2018-04-24T07:11:02.653Z,12.17
2018-04-24T07:12:02.356Z,12.2
2018-04-24T07:13:02.328Z,12.22
2018-04-24T07:14:02.061Z,12.28
2018-04-24T07:15:02.045Z,12.25
2018-04-24T07:16:02.910Z,12.35
2018-04-24T07:17:02.878Z,12.35
2018-04-24T07:18:02.862Z,12.32
2018-04-24T07:19:02.875Z,12.27
2018-04-24T07:20:02.135Z,12.42
2018-04-24T07:21:01.915Z,12.39
2018-04-24T07:22:01.901Z,12.32
2018-04-24T07:23:02.197Z,12.37
2018-04-24T07:24:02.188Z,12.27
2018-04-24T07:25:01.838Z,12.28
2018-04-24T07:26:02.065Z,12.29
2018-04-24T07:27:02.066Z,12.37
2018-04-24T07:28:02.020Z,12.39
2018-04-24T07:29:01.988Z,12.42
2018-04-24T07:30:01.731Z,12.37
2018-04-24T07:31:01.706Z,12.37
2018-04-24T07:32:01.955Z,12.42
2018-04-24T07:33:02.691Z,12.4
2018-04-24T07:34:02.644Z,12.35
2018-04-24T07:35:03.174Z,12.39
2018-04-24T07:36:01.946Z,12.42
2018-04-24T07:37:01.578Z,12.42
2018-04-24T07:38:01.557Z,12.4
2018-04-24T07:39:01.551Z,12.37
2018-04-24T07:40:02.803Z,12.37
2018-04-24T07:41:01.811Z,12.2
2018-04-24T07:42:01.719Z,12.24
2018-04-24T07:43:01.484Z,12.24
2018-04-24T07:44:01.669Z,12.18
2018-04-24T07:45:01.406Z,12.25
2018-04-24T07:46:01.668Z,12.27
2018-04-24T07:47:01.611Z,12.2
2018-04-24T07:48:01.641Z,12.21
2018-04-24T07:49:01.318Z,12.2
2018-04-24T07:50:01.377Z,12.21
2018-04-24T07:51:01.556Z,12.31
2018-04-24T07:52:01.585Z,12.28
2018-04-24T07:53:01.229Z,12.36
2018-04-24T07:54:01.533Z,12.37
2018-04-24T07:55:01.532Z,12.45
2018-04-24T07:56:01.411Z,12.5
2018-04-24T07:57:01.405Z,12.43
2018-04-24T07:58:01.413Z,12.55
2018-04-24T07:59:01.351Z,12.46
2018-04-24T08:00:01.087Z,12.47
2018-04-24T08:01:01.319Z,12.55
2018-04-24T08:02:01.085Z,12.61
2018-04-24T08:03:01.269Z,12.64
2018-04-24T08:04:01.001Z,12.73
2018-04-24T08:05:01.223Z,12.75
2018-04-24T08:06:01.203Z,12.7
2018-04-24T08:07:01.183Z,12.73
2018-04-24T08:08:01.227Z,12.73
2018-04-24T08:09:01.135Z,12.85
2018-04-24T08:10:01.121Z,12.76
2018-04-24T08:11:00.853Z,12.85
2018-04-24T08:12:01.283Z,12.87
2018-04-24T08:13:00.809Z,12.86
2018-04-24T08:14:01.038Z,12.91
2018-04-24T08:15:00.767Z,12.82
2018-04-24T08:16:00.998Z,12.83
2018-04-24T08:17:01.092Z,12.85
2018-04-24T08:18:00.949Z,12.85
2018-04-24T08:19:01.402Z,12.83
2018-04-24T08:20:01.574Z,12.91
2018-04-24T08:21:01.271Z,13
2018-04-24T08:22:01.822Z,13.15
2018-04-24T08:23:00.748Z,13.22
2018-04-24T08:24:00.583Z,13.41
2018-04-24T08:25:00.809Z,13.5
2018-04-24T08:26:00.792Z,13.57
2018-04-24T08:27:00.517Z,13.65
2018-04-24T08:28:00.884Z,13.6
2018-04-24T08:29:00.549Z,13.57
2018-04-24T08:30:01.222Z,13.57
2018-04-24T08:31:01.024Z,13.68
2018-04-24T08:32:00.575Z,13.78
2018-04-24T08:33:00.791Z,13.81
2018-04-24T08:34:00.669Z,13.85
2018-04-24T08:35:00.490Z,13.81
2018-04-24T08:36:00.129Z,13.9
2018-04-24T08:37:00.672Z,13.93
2018-04-24T08:38:00.599Z,13.86
2018-04-24T08:39:01.012Z,13.87
2018-04-24T08:40:00.728Z,13.85
2018-04-24T08:41:00.398Z,13.81
2018-04-24T08:42:00.133Z,13.87
2018-04-24T08:43:00.495Z,13.93
2018-04-24T08:44:00.218Z,13.92
2018-04-24T08:45:00.357Z,13.96
2018-04-24T08:46:00.397Z,13.95
2018-04-24T08:47:00.905Z,13.97
2018-04-24T08:48:00.533Z,13.99
2018-04-24T08:49:00.556Z,14.05
2018-04-24T08:50:00.326Z,13.97
2018-04-24T08:50:59.817Z,14.05
2018-04-24T08:52:00.293Z,13.93
2018-04-24T08:53:00.277Z,14.03
2018-04-24T08:54:00.343Z,13.86
2018-04-24T08:55:00.236Z,13.9
2018-04-24T08:56:00.233Z,13.92
2018-04-24T08:56:59.958Z,13.96
2018-04-24T08:57:59.943Z,13.99
2018-04-24T08:59:00.167Z,14.04
2018-04-24T09:00:00.144Z,14.04
2018-04-24T09:00:59.883Z,14.03
2018-04-24T09:02:00.622Z,14.04
2018-04-24T09:03:00.129Z,14.1
2018-04-24T09:04:00.071Z,14.14
2018-04-24T09:05:00.057Z,14.22
2018-04-24T09:05:59.791Z,14.33
2018-04-24T09:06:59.521Z,14.33
2018-04-24T09:07:59.999Z,14.35
2018-04-24T09:08:59.978Z,14.29
2018-04-24T09:09:59.965Z,14.33
2018-04-24T09:10:59.947Z,14.2
2018-04-24T09:11:59.928Z,14.18
2018-04-24T09:12:59.906Z,14.14
2018-04-24T09:14:00.018Z,14.17
2018-04-24T09:14:59.875Z,14.12
2018-04-24T09:15:59.855Z,14.08
2018-04-24T09:16:59.584Z,14.05
2018-04-24T09:17:59.813Z,14.05
2018-04-24T09:18:59.801Z,14.08
2018-04-24T09:19:59.780Z,13.96
2018-04-24T09:20:59.767Z,13.89
2018-04-24T09:21:59.514Z,14.04
2018-04-24T09:22:59.752Z,13.95
2018-04-24T09:23:59.710Z,13.96
2018-04-24T09:24:59.686Z,13.96
2018-04-24T09:25:59.668Z,14.04
2018-04-24T09:26:59.809Z,14.11
2018-04-24T09:27:59.629Z,14.07
2018-04-24T09:28:59.607Z,14.03
2018-04-24T09:29:59.345Z,14.05
2018-04-24T09:30:59.336Z,14.05
2018-04-24T09:31:59.301Z,14.05
2018-04-24T09:32:59.542Z,13.96
2018-04-24T09:33:59.529Z,13.83
2018-04-24T09:34:59.500Z,13.93
2018-04-24T09:35:59.478Z,13.87
2018-04-24T09:36:59.464Z,13.86
2018-04-24T09:37:59.444Z,13.86
2018-04-24T09:38:59.611Z,13.79
2018-04-24T09:39:59.419Z,13.81
2018-04-24T09:40:59.396Z,13.75
2018-04-24T09:41:59.132Z,13.72
2018-04-24T09:42:58.853Z,13.78
2018-04-24T09:43:59.965Z,13.77
2018-04-24T09:44:59.316Z,13.79
2018-04-24T09:45:58.829Z,13.85
2018-04-24T09:46:59.354Z,13.9
2018-04-24T09:47:59.257Z,13.99
2018-04-24T09:48:59.480Z,14.07
2018-04-24T09:49:59.216Z,14.04
2018-04-24T09:50:59.198Z,14.05
2018-04-24T09:51:59.182Z,14.14
2018-04-24T09:52:59.157Z,14.14
2018-04-24T09:53:59.007Z,14.14
2018-04-24T09:54:58.637Z,14.12
2018-04-24T09:55:58.609Z,14.15
2018-04-24T09:56:59.261Z,14.33
2018-04-24T09:57:58.825Z,14.32
2018-04-24T09:58:58.802Z,14.18
2018-04-24T09:59:59.104Z,14.17
2018-04-24T10:00:58.764Z,14.05
2018-04-24T10:01:59.004Z,13.89
2018-04-24T10:02:58.976Z,13.86
2018-04-24T10:03:58.956Z,13.77
2018-04-24T10:04:58.946Z,13.75
2018-04-24T10:05:58.673Z,13.72
2018-04-24T10:06:58.901Z,13.75
2018-04-24T10:07:59.010Z,13.57
2018-04-24T10:08:58.858Z,13.59
2018-04-24T10:09:58.845Z,13.63
2018-04-24T10:10:58.837Z,13.6
2018-04-24T10:11:58.815Z,13.59
2018-04-24T10:12:58.544Z,13.46
2018-04-24T10:13:58.779Z,13.53
2018-04-24T10:14:58.749Z,13.47
2018-04-24T10:15:58.735Z,13.39
2018-04-24T10:16:58.721Z,13.44
2018-04-24T10:17:58.443Z,13.42
2018-04-24T10:18:58.674Z,13.53
2018-04-24T10:19:58.416Z,13.59
2018-04-24T10:20:58.641Z,13.56
2018-04-24T10:21:58.622Z,13.52
2018-04-24T10:22:58.595Z,13.5
2018-04-24T10:23:58.577Z,13.49
2018-04-24T10:24:58.564Z,13.44
2018-04-24T10:25:58.540Z,13.47
2018-04-24T10:26:58.521Z,13.5
2018-04-24T10:27:58.258Z,13.6
2018-04-24T10:28:58.483Z,13.59
2018-04-24T10:29:58.222Z,13.78
2018-04-24T10:30:58.196Z,13.78
2018-04-24T10:31:58.176Z,13.9
2018-04-24T10:32:58.408Z,13.9
2018-04-24T10:33:58.138Z,13.86
2018-04-24T10:34:58.364Z,13.86
2018-04-24T10:35:58.348Z,13.83
2018-04-24T10:36:58.328Z,13.86
2018-04-24T10:37:58.309Z,13.95
2018-04-24T10:38:58.047Z,13.89
2018-04-24T10:39:58.269Z,13.96
2018-04-24T10:40:58.253Z,13.92
2018-04-24T10:41:57.987Z,13.93
2018-04-24T10:42:58.242Z,13.92
2018-04-24T10:43:58.075Z,13.87
2018-04-24T10:44:58.179Z,13.95
2018-04-24T10:45:57.925Z,13.97
2018-04-24T10:46:58.149Z,13.96
2018-04-24T10:47:58.242Z,14.04
2018-04-24T10:48:58.108Z,14.15
2018-04-24T10:49:57.839Z,14.17
2018-04-24T10:50:58.068Z,14.12
2018-04-24T10:51:57.547Z,14.12
2018-04-24T10:52:57.779Z,14.2
2018-04-24T10:53:58.024Z,14.26
2018-04-24T10:54:57.746Z,14.35
2018-04-24T10:55:58.120Z,14.3
2018-04-24T10:56:57.706Z,14.26
2018-04-24T10:57:57.691Z,14.2
2018-04-24T10:58:57.918Z,14.2
2018-04-24T10:59:57.897Z,14.2
2018-04-24T11:00:57.879Z,14.22
2018-04-24T11:01:57.614Z,14.35
2018-04-24T11:02:57.874Z,14.4
2018-04-24T11:03:57.825Z,14.47
2018-04-24T11:04:57.810Z,14.55
2018-04-24T11:05:57.788Z,14.58
2018-04-24T11:06:57.777Z,14.68
2018-04-24T11:07:57.509Z,14.68
2018-04-24T11:08:57.735Z,14.68
2018-04-24T11:09:57.470Z,14.73
2018-04-24T11:10:57.699Z,14.77
2018-04-24T11:11:57.880Z,14.73
2018-04-24T11:12:58.548Z,14.68
2018-04-24T11:13:57.166Z,14.6
2018-04-24T11:14:57.129Z,14.6
2018-04-24T11:15:57.382Z,14.62
2018-04-24T11:16:57.810Z,14.5
2018-04-24T11:17:57.325Z,14.36
2018-04-24T11:18:57.555Z,14.32
2018-04-24T11:19:57.712Z,14.4
2018-04-24T11:20:57.998Z,14.4
2018-04-24T11:21:57.500Z,14.3
2018-04-24T11:22:57.487Z,14.25
2018-04-24T11:23:57.467Z,14.14
2018-04-24T11:24:57.451Z,14.1
2018-04-24T11:25:57.432Z,14.04
2018-04-24T11:26:57.416Z,13.97
2018-04-24T11:27:57.478Z,14.07
2018-04-24T11:28:57.383Z,13.93
2018-04-24T11:29:57.359Z,13.99
2018-04-24T11:30:57.340Z,13.86
2018-04-24T11:31:57.066Z,13.86
2018-04-24T11:32:57.056Z,13.87
2018-04-24T11:33:57.031Z,13.75
2018-04-24T11:34:57.273Z,13.72
2018-04-24T11:35:57.152Z,13.79
2018-04-24T11:36:57.018Z,13.74
2018-04-24T11:37:57.204Z,13.83
2018-04-24T11:38:57.189Z,13.9
2018-04-24T11:39:57.168Z,13.9
2018-04-24T11:40:57.143Z,14.05
2018-04-24T11:41:57.128Z,14.04
2018-04-24T11:42:56.862Z,14.17
2018-04-24T11:43:56.954Z,14.15
2018-04-24T11:44:57.066Z,14.18
2018-04-24T11:45:56.800Z,14.23
2018-04-24T11:46:56.776Z,14.35
2018-04-24T11:47:57.017Z,14.4
2018-04-24T11:48:56.988Z,14.3
2018-04-24T11:49:56.723Z,14.48
2018-04-24T11:50:56.954Z,14.58
2018-04-24T11:51:56.932Z,14.45
2018-04-24T11:52:56.910Z,14.55
2018-04-24T11:53:56.895Z,14.51
2018-04-24T11:54:56.876Z,14.36
2018-04-24T11:55:56.863Z,14.43
2018-04-24T11:56:56.835Z,14.4
2018-04-24T11:57:56.817Z,14.33
2018-04-24T11:58:56.805Z,14.15
2018-04-24T11:59:56.577Z,14.2
2018-04-24T12:00:56.765Z,14.12
2018-04-24T12:01:56.744Z,14.18
2018-04-24T12:02:56.935Z,14.14
2018-04-24T12:03:56.465Z,14.17
2018-04-24T12:04:56.690Z,14.2
2018-04-24T12:05:56.671Z,14.3
2018-04-24T12:06:56.656Z,14.4
2018-04-24T12:07:56.647Z,14.4
2018-04-24T12:08:56.621Z,14.47
2018-04-24T12:09:56.810Z,14.65
2018-04-24T12:10:56.593Z,14.63
2018-04-24T12:11:57.548Z,14.59
2018-04-24T12:12:56.539Z,14.59
2018-04-24T12:13:56.519Z,14.63
2018-04-24T12:14:56.511Z,14.65
2018-04-24T12:15:56.481Z,14.65
2018-04-24T12:16:56.460Z,14.65
2018-04-24T12:17:56.197Z,14.63
2018-04-24T12:18:56.181Z,14.55
2018-04-24T12:19:56.416Z,14.5
2018-04-24T12:20:56.139Z,14.53
2018-04-24T12:21:56.372Z,14.43
2018-04-24T12:22:56.361Z,14.48
2018-04-24T12:23:56.091Z,14.54
2018-04-24T12:24:56.315Z,14.45
2018-04-24T12:25:56.297Z,14.51
2018-04-24T12:26:56.280Z,14.53
2018-04-24T12:27:56.262Z,14.55
2018-04-24T12:28:56.248Z,14.51
2018-04-24T12:29:56.222Z,14.58
2018-04-24T12:30:56.204Z,14.51
2018-04-24T12:31:56.186Z,14.47
2018-04-24T12:32:56.165Z,14.5
2018-04-24T12:33:56.147Z,14.41
2018-04-24T12:34:56.122Z,14.48
2018-04-24T12:35:56.111Z,14.43
2018-04-24T12:36:56.091Z,14.37
2018-04-24T12:37:56.068Z,14.44
2018-04-24T12:38:56.459Z,14.35
2018-04-24T12:39:55.537Z,14.36
2018-04-24T12:40:55.762Z,14.37
2018-04-24T12:41:55.992Z,14.32
2018-04-24T12:42:55.726Z,14.51
2018-04-24T12:43:55.965Z,14.54
2018-04-24T12:44:55.935Z,14.53
2018-04-24T12:45:55.921Z,14.65
2018-04-24T12:46:55.987Z,14.62
2018-04-24T12:47:55.885Z,14.68
2018-04-24T12:48:55.860Z,14.72
2018-04-24T12:49:55.601Z,14.77
2018-04-24T12:50:55.574Z,14.68
2018-04-24T12:51:55.928Z,14.69
2018-04-24T12:52:55.292Z,14.68
2018-04-24T12:53:55.765Z,14.68
2018-04-24T12:54:55.748Z,14.77
2018-04-24T12:55:55.485Z,14.91
2018-04-24T12:56:55.721Z,14.94
2018-04-24T12:57:55.575Z,14.99